Saint Johns, AZ (85936)

2:44 PM MST on July 24, 2016 (GMT -0700)
Saint Johns Industrial | | Change Station

Elev 5725 ft 34.52 °N, 109.38 °W | Updated 50 minutes ago

Partly Cloudy
Partly Cloudy
95 °F
Feels Like 95 °F
N
12
Wind Variable Wind from West
Gusts 20 mph

Today
High -- | Low -- °F
--% Chance of Precip.
Yesterday
High -- | Low -- °F
Precip. -- in
Pressure 29.79 in
Visibility 10.0 miles
Clouds Few 11000 ft
Dew Point 41 °F
Humidity 15%
Rainfall 0.02 in
Snow Depth Not available.
5:22 AM 7:25 PM
Waning Gibbous, 73% visible
METAR KSJN 242054Z AUTO 28010G17KT 10SM FEW110 35/05 A3014 RMK AO2 SLP086 T03500050 58020 TSNO
Pressure 29.79 in
Visibility 10.0 miles
Clouds Few 11000 ft
Dew Point 41 °F
Humidity 15%
Rainfall 0.02 in
Snow Depth Not available.
5:22 AM 7:25 PM
Waning Gibbous, 73% visible
METAR KSJN 242054Z AUTO 28010G17KT 10SM FEW110 35/05 A3014 RMK AO2 SLP086 T03500050 58020 TSNO

10-Day Weather Forecast

Almanac

Astronomy

Jul. 24, 2016 Rise Set
Actual Time
Civil Twilight
Nautical Twilight
Astronomical Twilight
Moon
Length of Visible Light
Length of Day
Tomorrow will be .
, % of the Moon is Illuminated

Today's Extremes

State Highs State Lows

Community

WunderPhotos

Upload Photos

1,927,195 photos uploaded!

WunderBlog® & News

Nearby

Air Quality

  Air Quality AQ Index Pollutant
Not available.

Snow Depth

Station Depth Elevation

Earthquake Activity

City Distance Mag. Time & Date
Minimum magnitude displayed is 2.5.

Coastal Water Temperatures

Place Temperature

Stations

Nearby Weather Stations

Station Location Temp. Windchill Dew Point Humidity Wind Precip. Elev Updated Type
                   

Watches & Warnings

There are currently no watches in effect.